D/T METAR WX W/DIR W/SPE G/SPE TEMP DEWP
25/02/20 13:50 EGQL 251350Z 27012KT 9999 FEW023 BKN030 05/00 Q0990 BLU W (270°) 13.8mph 5°C 0°C
25/02/20 12:50 EGQL 251250Z 25012KT 9999 SCT021 05/01 Q0990 WHT WSW (250°) 13.8mph 5°C 1°C
25/02/20 11:50 EGQL 251150Z 25011KT 9999 FEW025 SCT110 05/02 Q0991 BLU WSW (250°) 12.7mph 5°C 2°C
25/02/20 10:50 EGQL 251050Z 27010KT 9999 SCT025 04/01 Q0991 BLU W (270°) 11.5mph 4°C 1°C
25/02/20 09:50 EGQL 250950Z 26011KT 9999 FEW025 03/01 Q0991 BLU W (260°) 12.7mph 3°C 1°C
25/02/20 08:50 EGQL 250850Z 27009KT 9999 FEW025 02/00 Q0992 RMK BLU W (270°) 10.4mph 2°C 0°C
25/02/20 07:50 EGQL 250750Z 29004KT CAVOK 00/M01 Q0992 BLU WNW (290°) 4.6mph 0°C -1°C
25/02/20 06:50 EGQL 250650Z 26009KT CAVOK 00/M01 Q0992 BLU W (260°) 10.4mph 0°C -1°C
25/02/20 05:50 EGQL 250550Z 26008KT CAVOK 01/M01 Q0993 BLU W (260°) 9.2mph 1°C -1°C
25/02/20 04:50 EGQL 250450Z 25010KT CAVOK 00/M01 Q0993 BLU WSW (250°) 11.5mph 0°C -1°C
25/02/20 03:50 EGQL 250350Z 27009KT CAVOK 01/M01 Q0993 BLU W (270°) 10.4mph 1°C -1°C
25/02/20 02:50 EGQL 250250Z 30007KT CAVOK 02/M01 Q0994 BLU WNW (300°) 8.1mph 2°C -1°C
25/02/20 01:50 EGQL 250150Z 29007KT 9999 FEW025 BKN140 02/M01 Q0994 BLU WNW (290°) 8.1mph 2°C -1°C
25/02/20 00:50 EGQL 250050Z 29010KT 9999 SCT024 BKN032 BKN120 02/M00 Q0995 WHT WNW (290°) 11.5mph 2°C 0°C
25/02/20 00:32 EGQL 250032Z 28010KT 9999 SCT024 SCT032 BKN120 02/M00 Q0995 WHT W (280°) 11.5mph 2°C 0°C
24/02/20 23:50 EGQL 242350Z 29010KT 9999 FEW022 BKN120 02/00 Q0995 BLU WNW (290°) 11.5mph 2°C 0°C
24/02/20 22:50 EGQL 242250Z 29009KT 9999 FEW030 SCT120 02/00 Q0994 BLU WNW (290°) 10.4mph 2°C 0°C
24/02/20 21:50 EGQL 242150Z 26007KT 9999 FEW030 BKN130 02/01 Q0994 BLU W (260°) 8.1mph 2°C 1°C
24/02/20 20:50 EGQL 242050Z 29010KT 9999 FEW025 SCT050 03/01 Q0994 BLU WNW (290°) 11.5mph 3°C 1°C
24/02/20 19:50 EGQL 241950Z 28010KT 9999 FEW020 SCT050 02/01 Q0994 BLU W (280°) 11.5mph 2°C 1°C
24/02/20 19:24 EGQL 241924Z 29008KT 9999 VCSH FEW015 BKN033 02/01 Q0994 BLU VCSH WNW (290°) 9.2mph 2°C 1°C
24/02/20 18:50 EGQL 241850Z 30008KT 9999 -RA SCT009 SCT015 02/01 Q0994 GRN -RA WNW (300°) 9.2mph 2°C 1°C
24/02/20 17:50 EGQL 241750Z 33007KT 8000 -RA FEW006 BKN016 02/01 Q0993 WHT -RA NNW (330°) 8.1mph 2°C 1°C
24/02/20 16:50 EGQL 241650Z 36006KT 4000 RA BKN005 SCT012 BKN018 03/02 Q0992 YLO1 RA N (360°) 6.9mph 3°C 2°C
24/02/20 16:28 EGQL 241628Z 04003KT 5000 -RA BKN006 04/03 Q0992 RMK YLO 1 -RA NE (40°) 3.5mph 4°C 3°C
24/02/20 15:50 EGQL 241550Z 06007KT 5000 -RA SCT009 SCT017 BKN032 04/03 Q0992 RMK GRN -RA ENE (60°) 8.1mph 4°C 3°C
24/02/20 14:50 EGQL 241450Z 08012KT 9999 -RA BKN009 OVC024 04/03 Q0993 GRN -RA E (80°) 13.8mph 4°C 3°C
24/02/20 13:50 EGQL 241350Z 10019KT 9999 RA BKN009 OVC016 03/02 Q0993 GRN RA E (100°) 21.9mph 3°C 2°C
24/02/20 12:50 EGQL 241250Z 10022KT 6000 -RA SCT007 BKN024 03/02 Q0996 GRN -RA E (100°) 25.3mph 3°C 2°C
24/02/20 11:50 EGQL 241150Z 11019KT 5000 -RA BKN007 SCT016 03/02 Q0997 GRN -RA ESE (110°) 21.9mph 3°C 2°C
24/02/20 10:50 EGQL 241050Z 11023KT 9000 RA BKN009 BKN016 03/02 Q0999 GRN RA ESE (110°) 26.5mph 3°C 2°C
24/02/20 09:50 EGQL 240950Z 12018KT 9999 RA BKN010 BKN016 03/02 Q1001 GRN RA ESE (120°) 20.7mph 3°C 2°C
24/02/20 08:50 EGQL 240850Z 13012KT 9999 -RA BKN010 03/02 Q1003 RMK GRN -RA SE (130°) 13.8mph 3°C 2°C
24/02/20 07:50 EGQL 240750Z 15011KT 9999 -RA BKN012 SCT024 03/02 Q1005 GRN -RA SSE (150°) 12.7mph 3°C 2°C
24/02/20 06:50 EGQL 240650Z 13015KT 6000 RA SCT014 BKN021 04/03 Q1007 RMK GRN RA SE (130°) 17.3mph 4°C 3°C
24/02/20 06:23 EGQL 240623Z 11016KT 7000 RA FEW018 BKN024 05/03 Q1008 RMK WHT RA ESE (110°) 18.4mph 5°C 3°C
24/02/20 05:50 EGQL 240550Z 09009KT 8000 -RA FEW027 BKN045 04/04 Q1009 RMK BLU -RA E (90°) 10.4mph 4°C 4°C
24/02/20 04:50 EGQL 240450Z 05005KT 9999 FEW019 OVC060 01/01 Q1011 RMK BLU NE (50°) 5.8mph 1°C 1°C
24/02/20 03:50 EGQL 240350Z 04002KT CAVOK 00/M00 Q1013 RMK BLU NE (40°) 2.3mph 0°C 0°C
24/02/20 02:50 EGQL 240250Z 04001KT CAVOK 00/M00 Q1014 RMK BLU NE (40°) 1.2mph 0°C 0°C
24/02/20 01:50 EGQL 240150Z 30001KT CAVOK 01/M00 Q1015 RMK BLU WNW (300°) 1.2mph 1°C 0°C
24/02/20 00:50 EGQL 240050Z 27004KT CAVOK 02/00 Q1016 RMK BLU W (270°) 4.6mph 2°C 0°C
23/02/20 23:50 EGQL 232350Z 26003KT CAVOK 02/00 Q1017 RMK BLU W (260°) 3.5mph 2°C 0°C
23/02/20 22:50 EGQL 232250Z 28004KT CAVOK 02/01 Q1017 RMK BLU W (280°) 4.6mph 2°C 1°C
23/02/20 21:50 EGQL 232150Z 25008KT CAVOK 02/00 Q1017 RMK BLU WSW (250°) 9.2mph 2°C 0°C
23/02/20 20:50 EGQL 232050Z 24014KT CAVOK 03/01 Q1016 RMK BLU WSW (240°) 16.1mph 3°C 1°C
23/02/20 19:50 EGQL 231950Z 23008KT CAVOK 02/M01 Q1016 RMK BLU SW (230°) 9.2mph 2°C -1°C
23/02/20 18:50 EGQL 231850Z 25013KT CAVOK 04/01 Q1014 RMK BLU WSW (250°) 15.0mph 4°C 1°C